Lakeside, Montana
Current Conditions -  °F | °C
As of 4:55 AM on Friday 21 Nov 2014 (Local Time) from KGPI Reporting Station
Haze Haze  
Wind Chill: 28°   Ceiling: 700
Heat Index: 28°   Visibility: 3mi
Dew Point: 27°   Wind: 3mph
Humidity: 96%   Direction: 190°S
Pressure: 29.89"   Gusts: NA
Location:  48.02°N, 114.23°W
Report Text: KGPI 211155Z AUTO 19003KT 3SM BR OVC007 M02/M03 A2989 RMK AO2 SLP154 60000 70001 T10221028 11022 21028 56013
Loading
Personal Weather Stations






























Interactive Weather Map New forecast layout! Learn more

10-Day Weather Forecast

Advertisements
Track Severe Weather on mobile